Time;durP1;ratioP1;P1;durP2;ratioP2;P2;SDS_P1;SDS_P2;PMS_P1;PMS_P2;Temp;Humidity;BMP_temperature;BMP_pressure;BME280_temperature;BME280_humidity;BME280_pressure;Samples;Min_cycle;Max_cycle;Signal;HPM_P1;HPM_P2
2021/01/15 00:01:03;;;;;;;22.07;13.70;;;;;;;0.69;83.46;101498.19;5038539;28;20213;-61
2021/01/15 00:03:32;;;;;;;19.83;12.87;;;;;;;0.68;83.33;101496.47;5039055;28;20722;-58
2021/01/15 00:05:58;;;;;;;20.90;13.17;;;;;;;0.69;83.15;101497.34;5040115;28;20585;-60
2021/01/15 00:08:24;;;;;;;21.67;13.60;;;;;;;0.69;83.43;101494.72;5035407;28;20235;-60
2021/01/15 00:10:50;;;;;;;19.67;12.57;;;;;;;0.68;83.42;101499.09;5041104;28;20285;-56
2021/01/15 00:13:16;;;;;;;22.90;12.97;;;;;;;0.68;83.57;101496.47;5038113;28;20721;-59
2021/01/15 00:15:43;;;;;;;20.57;12.90;;;;;;;0.68;83.65;101499.09;5040664;28;20241;-58
2021/01/15 00:18:09;;;;;;;19.73;13.53;;;;;;;0.68;83.55;101504.31;5032291;28;20693;-58
2021/01/15 00:20:35;;;;;;;18.70;13.57;;;;;;;0.67;83.53;101494.72;5052589;28;20221;-58
2021/01/15 00:23:01;;;;;;;24.20;14.23;;;;;;;0.67;83.59;101497.34;5049384;28;20279;-57
2021/01/15 00:25:27;;;;;;;21.47;14.00;;;;;;;0.68;83.84;101503.47;5036537;28;20220;-60
2021/01/15 00:27:53;;;;;;;21.27;13.60;;;;;;;0.68;83.45;101501.72;5036114;28;20692;-55
2021/01/15 00:30:20;;;;;;;24.77;14.13;;;;;;;0.69;83.50;101505.19;5039015;28;20233;-58
2021/01/15 00:32:47;;;;;;;22.87;14.13;;;;;;;0.68;83.94;101504.31;5043895;28;20221;-56
2021/01/15 00:35:13;;;;;;;20.70;13.90;;;;;;;0.66;83.59;101500.84;5042554;28;20209;-62
2021/01/15 00:37:40;;;;;;;23.97;14.73;;;;;;;0.67;83.63;101494.72;5046139;28;20217;-57
2021/01/15 00:40:07;;;;;;;21.40;13.70;;;;;;;0.68;83.75;101498.22;5040944;28;20222;-57
2021/01/15 00:42:33;;;;;;;22.70;13.97;;;;;;;0.65;83.79;101493.00;5052682;28;20232;-59
2021/01/15 00:44:59;;;;;;;21.87;13.67;;;;;;;0.64;83.80;101494.75;5046022;28;20559;-55
2021/01/15 00:47:25;;;;;;;21.27;14.57;;;;;;;0.65;84.30;101490.38;5048009;28;20210;-53
2021/01/15 00:49:52;;;;;;;19.77;12.97;;;;;;;0.65;84.15;101495.63;5044454;28;20724;-56
2021/01/15 00:52:18;;;;;;;19.27;13.23;;;;;;;0.65;84.00;101499.09;5035937;28;20271;-54
2021/01/15 00:54:44;;;;;;;20.30;13.43;;;;;;;0.65;84.15;101499.09;5040733;28;20214;-61
2021/01/15 00:57:10;;;;;;;22.77;14.07;;;;;;;0.66;83.89;101489.50;5043951;28;20334;-58
2021/01/15 00:59:36;;;;;;;26.00;14.80;;;;;;;0.65;83.98;101499.09;5039256;28;20279;-58
2021/01/15 01:02:02;;;;;;;20.73;13.40;;;;;;;0.65;84.26;101498.25;5052815;28;20666;-58
2021/01/15 01:04:28;;;;;;;25.23;14.27;;;;;;;0.65;84.00;101500.84;5045668;28;20271;-59
2021/01/15 01:06:55;;;;;;;22.17;14.27;;;;;;;0.65;84.02;101498.25;5050485;28;20221;-60
2021/01/15 01:09:21;;;;;;;23.50;13.93;;;;;;;0.63;84.40;101500.88;5053020;28;20205;-59
2021/01/15 01:11:47;;;;;;;19.83;13.00;;;;;;;0.63;84.33;101503.50;5048452;28;20206;-59
2021/01/15 01:14:13;;;;;;;24.33;13.67;;;;;;;0.63;84.51;101500.88;5046930;28;20662;-57
2021/01/15 01:16:39;;;;;;;24.97;14.47;;;;;;;0.63;84.34;101500.00;5048426;28;20267;-59
2021/01/15 01:19:05;;;;;;;24.80;14.17;;;;;;;0.63;84.20;101505.25;5039736;28;20600;-57
2021/01/15 01:21:32;;;;;;;20.13;13.13;;;;;;;0.61;84.27;101499.13;5052653;28;20206;-57
2021/01/15 01:23:59;;;;;;;26.37;14.70;;;;;;;0.61;84.41;101505.25;5037672;28;20236;-57
2021/01/15 01:26:25;;;;;;;23.80;15.27;;;;;;;0.60;84.67;101506.13;5037119;28;20210;-58
2021/01/15 01:28:51;;;;;;;22.77;14.13;;;;;;;0.62;84.61;101500.88;5044426;28;20231;-62
2021/01/15 01:31:18;;;;;;;22.80;13.93;;;;;;;0.61;84.58;101502.63;5033336;28;20202;-57
2021/01/15 01:33:45;;;;;;;22.17;12.67;;;;;;;0.61;84.62;101501.75;5038136;28;20222;-56
2021/01/15 01:36:12;;;;;;;26.83;14.87;;;;;;;0.61;84.57;101499.13;5044741;28;20248;-59
2021/01/15 01:38:39;;;;;;;23.50;13.53;;;;;;;0.61;84.66;101496.53;5045541;28;20264;-58
2021/01/15 01:41:06;;;;;;;25.63;14.23;;;;;;;0.61;84.67;101499.13;5035961;28;20209;-55
2021/01/15 01:43:32;;;;;;;23.53;13.97;;;;;;;0.59;84.54;101504.41;5046947;28;20753;-58
2021/01/15 01:46:02;;;;;;;25.70;14.70;;;;;;;0.59;84.56;101504.41;5049672;28;20213;-55
2021/01/15 01:48:29;;;;;;;23.83;13.93;;;;;;;0.58;84.86;101502.66;5045645;28;20220;-62
2021/01/15 01:50:55;;;;;;;23.57;13.73;;;;;;;0.59;84.65;101507.00;5035758;28;20268;-57
2021/01/15 01:53:24;;;;;;;28.73;13.90;;;;;;;0.58;84.59;101505.28;5050319;28;20279;-58
2021/01/15 01:55:51;;;;;;;19.70;13.23;;;;;;;0.57;84.75;101511.41;5030045;28;20663;-56
2021/01/15 01:58:18;;;;;;;21.50;13.53;;;;;;;0.57;84.58;101519.25;5037766;28;20214;-59
2021/01/15 02:00:48;;;;;;;23.97;13.87;;;;;;;0.57;84.95;101515.78;5031891;28;20248;-60
2021/01/15 02:03:17;;;;;;;24.47;14.07;;;;;;;0.57;84.70;101526.25;5031040;28;20226;-56
2021/01/15 02:05:44;;;;;;;21.77;12.87;;;;;;;0.57;84.78;101526.25;5048353;28;20255;-59
2021/01/15 02:08:10;;;;;;;20.20;13.00;;;;;;;0.56;84.87;101530.63;5045340;28;20197;-59
2021/01/15 02:10:42;;;;;;;22.30;12.80;;;;;;;0.56;84.98;101524.50;5038348;28;20199;-58
2021/01/15 02:13:17;;;;;;;22.13;12.30;;;;;;;0.52;85.14;101522.81;5036662;28;20607;-57
2021/01/15 02:15:47;;;;;;;22.73;13.43;;;;;;;0.52;84.92;101531.56;5039626;28;20578;-58
2021/01/15 02:18:21;;;;;;;22.33;13.20;;;;;;;0.51;84.93;101523.72;5037557;28;20203;-59
2021/01/15 02:21:05;;;;;;;23.37;13.73;;;;;;;0.51;85.29;101537.69;5031669;28;20234;-57
2021/01/15 02:23:38;;;;;;;18.57;12.47;;;;;;;0.53;84.93;101537.66;5032205;28;20225;-58
2021/01/15 02:26:22;;;;;;;25.67;13.17;;;;;;;0.53;85.01;101545.53;5031645;28;20233;-56
2021/01/15 02:29:14;;;;;;;21.37;12.53;;;;;;;0.53;84.97;101543.78;5037694;28;20210;-57
2021/01/15 02:32:12;;;;;;;21.00;13.10;;;;;;;0.53;85.07;101546.41;5031622;28;20202;-58
2021/01/15 02:35:02;;;;;;;19.70;12.70;;;;;;;0.49;85.03;101542.06;5046877;28;20232;-58
2021/01/15 02:37:37;;;;;;;21.97;12.77;;;;;;;0.49;85.31;101533.31;5035514;28;20202;-57
2021/01/15 02:40:06;;;;;;;24.87;13.40;;;;;;;0.48;84.97;101532.47;5045565;28;20225;-58
2021/01/15 02:42:35;;;;;;;20.53;12.53;;;;;;;0.48;84.86;101535.09;5041342;28;20225;-59
2021/01/15 02:45:04;;;;;;;20.47;12.97;;;;;;;0.48;85.01;101542.94;5040989;28;20212;-59
2021/01/15 02:47:46;;;;;;;17.50;11.33;;;;;;;0.47;85.11;101540.31;5038423;28;20221;-59
2021/01/15 02:50:13;;;;;;;18.60;12.50;;;;;;;0.47;85.24;101542.94;5030307;28;20209;-58
2021/01/15 02:52:41;;;;;;;20.67;12.43;;;;;;;0.48;85.07;101549.94;5036980;28;20225;-57
2021/01/15 02:55:08;;;;;;;21.60;12.43;;;;;;;0.46;85.09;101549.94;5039107;28;20263;-61
2021/01/15 02:57:34;;;;;;;19.67;12.60;;;;;;;0.46;85.06;101549.06;5029905;28;20202;-61
2021/01/15 03:00:00;;;;;;;19.93;12.80;;;;;;;0.46;85.11;101556.94;5031617;28;20237;-59
2021/01/15 03:02:32;;;;;;;22.07;12.47;;;;;;;0.45;85.38;101563.94;5045575;28;20229;-59
2021/01/15 03:05:05;;;;;;;20.03;12.47;;;;;;;0.44;85.20;101556.94;5051780;28;20201;-59
2021/01/15 03:07:32;;;;;;;20.07;12.20;;;;;;;0.45;85.25;101568.28;5040439;28;20685;-58
2021/01/15 03:10:04;;;;;;;16.70;10.57;;;;;;;0.44;85.05;101572.66;5039595;28;20209;-55
2021/01/15 03:12:31;;;;;;;18.77;12.40;;;;;;;0.43;85.21;101568.31;5035076;28;20229;-60
2021/01/15 03:14:59;;;;;;;19.90;11.80;;;;;;;0.43;85.43;101570.94;5050917;28;20305;-58
2021/01/15 03:17:31;;;;;;;19.73;11.73;;;;;;;0.42;85.21;101574.44;5045573;28;20599;-58
2021/01/15 03:19:57;;;;;;;19.43;12.17;;;;;;;0.43;85.24;101572.69;5037811;28;20251;-56
2021/01/15 03:22:32;;;;;;;18.17;11.33;;;;;;;0.43;85.35;101575.28;5038167;28;20614;-63
2021/01/15 03:25:00;;;;;;;17.53;10.93;;;;;;;0.42;85.48;101569.19;5035191;28;20216;-58
2021/01/15 03:27:42;;;;;;;21.67;12.57;;;;;;;0.44;85.38;101577.03;5048357;28;20210;-59
2021/01/15 03:30:09;;;;;;;15.83;10.77;;;;;;;0.44;85.25;101577.03;5030664;28;20253;-59
2021/01/15 03:32:36;;;;;;;20.60;12.33;;;;;;;0.46;85.29;101584.00;5031711;28;20230;-61
2021/01/15 03:35:02;;;;;;;18.47;11.47;;;;;;;0.45;85.27;101584.88;5035957;28;20206;-59
2021/01/15 03:37:28;;;;;;;13.77;9.20;;;;;;;0.45;85.49;101584.88;5039587;28;20210;-58
2021/01/15 03:39:54;;;;;;;15.53;10.73;;;;;;;0.45;85.05;101590.13;5032197;28;20288;-59
2021/01/15 03:42:21;;;;;;;17.10;10.70;;;;;;;0.46;85.42;101586.63;5038550;28;20706;-59
2021/01/15 03:44:47;;;;;;;15.93;10.83;;;;;;;0.46;85.52;101591.00;5044359;28;20213;-59
2021/01/15 03:47:13;;;;;;;16.13;11.23;;;;;;;0.45;85.37;101597.13;5035229;28;20702;-57
2021/01/15 03:49:39;;;;;;;16.53;9.70;;;;;;;0.46;85.13;101593.63;5049829;28;20234;-60
2021/01/15 03:52:10;;;;;;;16.30;10.73;;;;;;;0.44;85.51;101593.63;5049857;28;20304;-60
2021/01/15 03:54:36;;;;;;;16.17;10.17;;;;;;;0.44;85.26;101593.63;5048861;28;20216;-62
2021/01/15 03:57:02;;;;;;;16.47;10.23;;;;;;;0.45;85.16;101597.13;5045260;28;20206;-59
2021/01/15 03:59:29;;;;;;;16.30;11.03;;;;;;;0.44;85.21;101598.88;5031021;28;20229;-59
2021/01/15 04:01:54;;;;;;;17.03;10.43;;;;;;;0.45;85.23;101602.38;5029790;28;20236;-59
2021/01/15 04:04:20;;;;;;;16.50;10.60;;;;;;;0.44;85.31;101603.25;5054033;28;20244;-59
2021/01/15 04:06:46;;;;;;;16.47;10.30;;;;;;;0.43;85.30;101598.88;5044372;28;20290;-60
2021/01/15 04:09:12;;;;;;;18.20;10.53;;;;;;;0.44;85.15;101598.88;5033160;28;20208;-60
2021/01/15 04:11:38;;;;;;;16.23;11.00;;;;;;;0.45;85.10;101605.84;5043971;28;20268;-61
2021/01/15 04:14:05;;;;;;;14.57;10.03;;;;;;;0.46;84.99;101602.34;5052988;28;20233;-59
2021/01/15 04:16:32;;;;;;;16.10;10.47;;;;;;;0.46;85.40;101606.72;5049507;28;20203;-58
2021/01/15 04:18:58;;;;;;;13.80;9.50;;;;;;;0.45;85.06;101600.63;5047832;28;20674;-55
2021/01/15 04:21:24;;;;;;;17.57;10.80;;;;;;;0.46;84.85;101606.72;5041107;28;20240;-59
2021/01/15 04:23:50;;;;;;;17.17;10.50;;;;;;;0.48;85.01;101611.09;5041701;28;20285;-57
2021/01/15 04:26:19;;;;;;;18.57;10.77;;;;;;;0.48;85.01;101611.09;5047330;28;20202;-57
2021/01/15 04:28:45;;;;;;;14.90;10.23;;;;;;;0.50;84.99;101616.31;5054810;28;20213;-58
2021/01/15 04:31:15;;;;;;;16.87;10.30;;;;;;;0.50;85.13;101614.56;5048775;28;20214;-56
2021/01/15 04:33:41;;;;;;;17.43;9.77;;;;;;;0.49;85.00;101620.69;5033498;28;20599;-55
2021/01/15 04:36:11;;;;;;;15.53;9.63;;;;;;;0.49;85.05;101619.81;5034263;28;20214;-57
2021/01/15 04:38:37;;;;;;;15.40;10.07;;;;;;;0.48;84.62;101618.94;5044243;28;20202;-56
2021/01/15 04:41:03;;;;;;;14.60;9.93;;;;;;;0.48;84.86;101628.56;5035130;28;20230;-58
2021/01/15 04:43:32;;;;;;;15.23;10.17;;;;;;;0.46;84.82;101625.94;5050415;28;20234;-58
2021/01/15 04:46:00;;;;;;;13.50;9.67;;;;;;;0.47;84.92;101627.69;5041927;28;20674;-58
2021/01/15 04:48:29;;;;;;;15.53;9.30;;;;;;;0.47;84.84;101632.94;5042241;28;20209;-56
2021/01/15 04:50:58;;;;;;;15.10;9.57;;;;;;;0.47;84.58;101624.19;5037331;28;20202;-54
2021/01/15 04:53:26;;;;;;;15.60;10.03;;;;;;;0.47;84.54;101626.81;5046922;28;20639;-58
2021/01/15 04:55:58;;;;;;;14.50;9.87;;;;;;;0.45;84.63;101625.94;5049578;28;20217;-54
2021/01/15 04:58:25;;;;;;;13.87;9.50;;;;;;;0.44;84.58;101635.56;5047070;28;20206;-57
2021/01/15 05:00:57;;;;;;;18.37;10.57;;;;;;;0.43;84.77;101639.06;5038675;28;20252;-56
2021/01/15 05:03:24;;;;;;;13.27;9.87;;;;;;;0.43;84.67;101639.06;5041790;28;20233;-57
2021/01/15 05:06:00;;;;;;;14.63;9.50;;;;;;;0.44;84.56;101648.66;5037135;28;20218;-57
2021/01/15 05:08:27;;;;;;;15.00;9.97;;;;;;;0.45;84.53;101644.28;5047844;28;20205;-57
2021/01/15 05:10:54;;;;;;;15.10;9.80;;;;;;;0.44;84.52;101643.41;5047816;28;20252;-57
2021/01/15 05:13:21;;;;;;;16.43;9.87;;;;;;;0.44;84.51;101645.16;5041503;28;20233;-57
2021/01/15 05:15:48;;;;;;;13.83;10.23;;;;;;;0.43;84.60;101649.53;5034778;28;20205;-58
2021/01/15 05:18:16;;;;;;;16.23;9.50;;;;;;;0.43;84.46;101651.28;5041512;28;20216;-55
2021/01/15 05:20:42;;;;;;;14.60;9.87;;;;;;;0.43;84.51;101649.53;5035421;28;20592;-58
2021/01/15 05:23:09;;;;;;;13.50;9.67;;;;;;;0.44;84.39;101653.03;5040259;28;20252;-55
2021/01/15 05:25:36;;;;;;;15.47;10.10;;;;;;;0.46;84.07;101654.78;5042024;28;20697;-57
2021/01/15 05:28:03;;;;;;;16.67;10.43;;;;;;;0.48;84.55;101660.88;5037466;28;20209;-55
2021/01/15 05:30:30;;;;;;;15.43;9.77;;;;;;;0.49;84.13;101652.13;5041223;28;20217;-56
2021/01/15 05:32:58;;;;;;;15.43;9.63;;;;;;;0.51;84.01;101655.63;5040922;28;20755;-55
2021/01/15 05:35:40;;;;;;;14.37;9.80;;;;;;;0.53;84.06;101661.72;5045480;28;20205;-54
2021/01/15 05:38:06;;;;;;;12.30;8.70;;;;;;;0.53;84.09;101658.25;5035851;28;20278;-58
2021/01/15 05:40:37;;;;;;;14.93;9.53;;;;;;;0.51;83.99;101660.00;5050621;28;20269;-57
2021/01/15 05:43:04;;;;;;;16.17;9.47;;;;;;;0.50;84.28;101666.13;5039666;28;20226;-59
2021/01/15 05:45:30;;;;;;;14.30;9.33;;;;;;;0.50;84.07;101671.34;5045801;28;20706;-60
2021/01/15 05:47:56;;;;;;;14.07;9.33;;;;;;;0.50;84.04;101669.59;5045568;28;20233;-59
2021/01/15 05:50:22;;;;;;;17.27;10.10;;;;;;;0.51;84.01;101671.34;5045393;28;20202;-59
2021/01/15 05:52:55;;;;;;;16.30;10.30;;;;;;;0.52;83.84;101673.09;5032771;28;20707;-59
2021/01/15 05:55:22;;;;;;;15.63;10.00;;;;;;;0.53;83.91;101666.97;5045336;28;20209;-59
2021/01/15 05:57:50;;;;;;;16.53;10.73;;;;;;;0.54;83.85;101675.69;5032319;28;20244;-61
2021/01/15 06:00:34;;;;;;;13.97;9.63;;;;;;;0.56;83.84;101668.69;5031134;28;20229;-60
2021/01/15 06:03:06;;;;;;;14.83;9.73;;;;;;;0.52;83.87;101667.84;5033012;28;20229;-61
2021/01/15 06:05:33;;;;;;;13.53;9.00;;;;;;;0.52;83.75;101673.09;5032551;28;20225;-60
2021/01/15 06:07:59;;;;;;;16.23;10.30;;;;;;;0.51;83.79;101673.97;5043582;28;20214;-59
2021/01/15 06:10:26;;;;;;;13.67;9.50;;;;;;;0.51;83.71;101675.72;5030540;28;20213;-61
2021/01/15 06:12:54;;;;;;;16.23;10.27;;;;;;;0.52;83.46;101674.84;5051623;28;20229;-59
2021/01/15 06:15:20;;;;;;;14.30;9.67;;;;;;;0.51;83.71;101676.59;5051111;28;20213;-59
2021/01/15 06:17:51;;;;;;;15.30;10.23;;;;;;;0.51;83.69;101679.22;5042256;28;20202;-59
2021/01/15 06:20:19;;;;;;;15.90;10.50;;;;;;;0.51;83.84;101678.34;5033793;28;20226;-58
2021/01/15 06:22:48;;;;;;;16.07;9.83;;;;;;;0.50;83.75;101682.72;5034642;28;20236;-56
2021/01/15 06:25:18;;;;;;;14.33;9.40;;;;;;;0.50;83.72;101681.84;5036548;28;20779;-55
2021/01/15 06:27:45;;;;;;;14.20;9.10;;;;;;;0.49;83.54;101680.97;5035890;28;20221;-61
2021/01/15 06:30:17;;;;;;;15.70;10.33;;;;;;;0.48;83.49;101680.97;5048040;28;20207;-59
2021/01/15 06:32:44;;;;;;;14.63;9.43;;;;;;;0.46;83.53;101678.34;5039261;28;20225;-58
2021/01/15 06:35:24;;;;;;;18.00;10.27;;;;;;;0.47;83.52;101689.72;5034990;28;20213;-58
2021/01/15 06:37:59;;;;;;;15.93;9.70;;;;;;;0.47;83.31;101681.84;5044140;28;20292;-57
2021/01/15 06:40:35;;;;;;;14.07;10.07;;;;;;;0.45;83.17;101687.09;5032991;28;20245;-57
2021/01/15 06:43:04;;;;;;;13.87;8.73;;;;;;;0.45;83.61;101688.84;5034695;28;20229;-58
2021/01/15 06:45:39;;;;;;;14.70;9.47;;;;;;;0.44;83.49;101690.59;5035454;28;20209;-57
2021/01/15 06:48:10;;;;;;;13.77;9.17;;;;;;;0.44;83.72;101698.47;5041423;28;20217;-58
2021/01/15 06:50:38;;;;;;;14.23;9.40;;;;;;;0.44;83.11;101695.84;5047185;28;20205;-58
2021/01/15 06:53:15;;;;;;;13.30;9.47;;;;;;;0.42;83.26;101700.22;5051490;28;20249;-57
2021/01/15 06:55:43;;;;;;;16.93;9.83;;;;;;;0.41;83.32;101702.84;5030171;28;20205;-59
2021/01/15 06:58:21;;;;;;;15.00;9.37;;;;;;;0.40;83.45;101707.22;5030785;28;20218;-54
2021/01/15 07:01:14;;;;;;;14.70;9.47;;;;;;;0.39;83.50;101710.69;5041776;28;20230;-56
2021/01/15 07:04:09;;;;;;;17.07;10.00;;;;;;;0.37;83.26;101707.22;5040607;28;20658;-57
2021/01/15 07:06:36;;;;;;;17.50;9.97;;;;;;;0.35;83.49;101714.25;5040302;28;20218;-59
2021/01/15 07:09:05;;;;;;;17.00;10.53;;;;;;;0.32;83.45;101711.63;5048718;28;20264;-56
2021/01/15 07:11:32;;;;;;;14.00;10.00;;;;;;;0.31;83.42;101713.38;5047125;28;20256;-60
2021/01/15 07:13:59;;;;;;;16.27;9.77;;;;;;;0.30;83.29;101710.75;5033708;28;20225;-58
2021/01/15 07:16:30;;;;;;;16.77;11.17;;;;;;;0.28;83.15;101710.75;5040304;28;20243;-56
2021/01/15 07:19:15;;;;;;;18.20;11.33;;;;;;;0.27;83.35;101721.25;5032480;28;20222;-59
2021/01/15 07:22:07;;;;;;;16.77;10.67;;;;;;;0.25;83.56;101718.63;5042202;28;20670;-56
2021/01/15 07:24:34;;;;;;;15.77;10.33;;;;;;;0.24;83.37;101732.59;5035181;28;20627;-55
2021/01/15 07:27:01;;;;;;;18.97;11.63;;;;;;;0.24;83.38;101736.97;5049602;28;20259;-58
2021/01/15 07:29:29;;;;;;;16.07;10.60;;;;;;;0.22;83.43;101733.50;5034622;28;20775;-59
2021/01/15 07:31:58;;;;;;;21.50;11.77;;;;;;;0.21;83.35;101737.84;5037004;28;20213;-59
2021/01/15 07:34:26;;;;;;;18.97;11.97;;;;;;;0.21;83.39;101734.38;5041041;28;20213;-60
2021/01/15 07:36:52;;;;;;;17.23;11.23;;;;;;;0.20;83.79;101737.84;5039508;28;20216;-59
2021/01/15 07:39:22;;;;;;;19.83;11.17;;;;;;;0.19;83.51;101746.59;5044933;28;20605;-58
2021/01/15 07:41:52;;;;;;;20.50;12.20;;;;;;;0.18;83.60;101742.25;5042407;28;20225;-57
2021/01/15 07:44:38;;;;;;;19.47;12.00;;;;;;;0.17;83.87;101751.00;5050218;28;20207;-58
2021/01/15 07:47:14;;;;;;;18.30;11.73;;;;;;;0.17;83.85;101749.25;5042737;28;20213;-57
2021/01/15 07:49:45;;;;;;;21.57;12.23;;;;;;;0.17;83.69;101756.22;5047228;28;20197;-56
2021/01/15 07:52:12;;;;;;;19.43;12.90;;;;;;;0.17;83.84;101749.25;5040765;28;20217;-62
2021/01/15 07:55:05;;;;;;;23.50;13.53;;;;;;;0.22;83.94;101759.69;5050954;28;20202;-61
2021/01/15 07:57:32;;;;;;;22.30;12.37;;;;;;;0.27;84.25;101761.41;5009939;28;20201;-60
2021/01/15 08:00:31;;;;;;;22.07;12.53;;;;;;;0.29;83.80;101759.66;5050586;28;20608;-61
2021/01/15 08:03:01;;;;;;;21.17;12.67;;;;;;;0.29;83.96;101772.78;5042142;28;20229;-62
2021/01/15 08:05:28;;;;;;;23.43;12.63;;;;;;;0.28;84.13;101767.53;5044108;28;20280;-64
2021/01/15 08:08:08;;;;;;;19.77;12.53;;;;;;;0.27;84.00;101766.66;5042051;28;20214;-61
2021/01/15 08:10:44;;;;;;;25.27;13.57;;;;;;;0.27;84.11;101771.03;5038320;28;20208;-62
2021/01/15 08:13:19;;;;;;;25.30;14.40;;;;;;;0.26;84.04;101767.53;5038232;28;20222;-62
2021/01/15 08:15:45;;;;;;;22.57;14.63;;;;;;;0.27;83.84;101778.88;5036429;28;20213;-61
2021/01/15 08:18:13;;;;;;;21.13;13.97;;;;;;;0.26;84.01;101778.03;5046922;28;20210;-62
2021/01/15 08:20:44;;;;;;;25.37;13.73;;;;;;;0.26;84.24;101778.03;5034238;28;20222;-62
2021/01/15 08:23:20;;;;;;;24.07;13.43;;;;;;;0.27;84.21;101781.50;5043983;28;20233;-62
2021/01/15 08:25:47;;;;;;;22.63;13.20;;;;;;;0.27;84.11;101779.75;5042892;28;20201;-62
2021/01/15 08:28:13;;;;;;;26.27;14.53;;;;;;;0.27;84.19;101784.13;5038955;28;20557;-63
2021/01/15 08:30:39;;;;;;;25.77;14.53;;;;;;;0.26;84.18;101782.38;5039540;28;20297;-62
2021/01/15 08:33:05;;;;;;;25.23;14.20;;;;;;;0.26;84.21;101783.25;5042267;28;20321;-62
2021/01/15 08:35:34;;;;;;;27.10;14.77;;;;;;;0.27;84.37;101786.75;5031924;28;20213;-62
2021/01/15 08:38:01;;;;;;;23.97;14.43;;;;;;;0.27;84.20;101792.00;5035759;28;20206;-63
2021/01/15 08:40:28;;;;;;;24.70;15.23;;;;;;;0.28;84.08;101785.88;5047312;28;20698;-62
2021/01/15 08:42:56;;;;;;;25.93;14.63;;;;;;;0.28;84.45;101786.75;5045534;28;20230;-61
2021/01/15 08:45:26;;;;;;;25.13;15.87;;;;;;;0.29;84.32;101788.50;5046063;28;20198;-62
2021/01/15 08:47:54;;;;;;;25.80;15.00;;;;;;;0.30;84.55;101792.00;5046558;28;20673;-61
2021/01/15 08:50:20;;;;;;;27.57;16.07;;;;;;;0.30;84.17;101794.59;5045409;28;20201;-60
2021/01/15 08:52:48;;;;;;;30.07;16.03;;;;;;;0.32;84.23;101805.97;5048043;28;20229;-62
2021/01/15 08:55:15;;;;;;;29.53;16.70;;;;;;;0.31;84.32;101806.84;5050161;28;20205;-61
2021/01/15 08:57:41;;;;;;;32.00;17.03;;;;;;;0.31;84.13;101802.47;5051884;28;20201;-61
2021/01/15 09:00:09;;;;;;;28.67;16.90;;;;;;;0.30;84.28;101805.97;5052308;28;20237;-61
2021/01/15 09:02:38;;;;;;;27.43;15.90;;;;;;;0.30;84.22;101807.72;5041605;28;20725;-61
2021/01/15 09:05:06;;;;;;;30.50;16.03;;;;;;;0.30;84.43;101823.44;5042992;28;20202;-61
2021/01/15 09:07:37;;;;;;;33.23;16.30;;;;;;;0.29;84.12;101821.69;5046277;28;20216;-61
2021/01/15 09:10:09;;;;;;;29.00;15.73;;;;;;;0.28;84.14;101826.06;5046382;28;20206;-63
2021/01/15 09:12:40;;;;;;;30.27;16.83;;;;;;;0.28;84.34;101833.91;5044857;28;20225;-62
2021/01/15 09:15:07;;;;;;;31.23;18.33;;;;;;;0.28;84.60;101831.28;5050077;28;20205;-62
2021/01/15 09:17:34;;;;;;;30.33;16.67;;;;;;;0.29;84.35;101833.03;5046340;28;20209;-62
2021/01/15 09:20:00;;;;;;;26.83;16.07;;;;;;;0.31;84.31;101838.28;5050445;28;20736;-63
2021/01/15 09:24:53;;;;;;;24.50;15.80;;;;;;;0.31;84.62;101840.91;5086342;22;20233;-63
2021/01/15 09:27:21;;;;;;;31.03;15.90;;;;;;;0.33;84.81;101841.78;5062475;28;20208;-63
2021/01/15 09:29:47;;;;;;;28.23;16.10;;;;;;;0.33;84.64;101847.88;5060256;28;20368;-63
2021/01/15 09:32:13;;;;;;;30.13;16.67;;;;;;;0.34;84.57;101854.00;5067508;28;20287;-64
2021/01/15 09:34:39;;;;;;;26.67;16.33;;;;;;;0.36;84.65;101854.00;5057081;28;20697;-62
2021/01/15 09:37:05;;;;;;;27.43;16.17;;;;;;;0.37;84.48;101856.59;5060504;28;20216;-64
2021/01/15 09:39:31;;;;;;;27.80;16.60;;;;;;;0.40;84.87;101855.72;5063171;28;20208;-64
2021/01/15 09:41:59;;;;;;;29.73;16.73;;;;;;;0.41;84.67;101857.47;5061804;28;20205;-64
2021/01/15 09:44:27;;;;;;;27.33;16.67;;;;;;;0.41;84.48;101858.31;5064850;28;20222;-63
2021/01/15 09:46:56;;;;;;;31.23;16.83;;;;;;;0.43;84.81;101864.44;5060075;28;20707;-66
2021/01/15 09:49:22;;;;;;;31.03;17.30;;;;;;;0.42;84.74;101862.69;5063959;28;20201;-64
2021/01/15 09:51:50;;;;;;;30.03;17.13;;;;;;;0.43;84.97;101868.81;5061193;28;20238;-64
2021/01/15 09:54:16;;;;;;;31.20;16.37;;;;;;;0.43;85.05;101867.06;5060223;28;20225;-64
2021/01/15 09:56:42;;;;;;;28.60;15.83;;;;;;;0.42;84.90;101867.06;5063575;28;20201;-64
2021/01/15 09:59:10;;;;;;;31.27;16.60;;;;;;;0.43;84.79;101868.81;5058916;28;20208;-65
2021/01/15 10:01:37;;;;;;;33.20;17.07;;;;;;;0.42;84.91;101878.41;5058720;28;20237;-63
2021/01/15 10:04:03;;;;;;;32.93;17.20;;;;;;;0.42;84.88;101873.19;5057890;28;20224;-65
2021/01/15 10:06:31;;;;;;;27.73;15.90;;;;;;;0.43;84.68;101877.53;5062240;28;20228;-63
2021/01/15 10:08:58;;;;;;;29.00;15.87;;;;;;;0.43;84.84;101881.91;5061127;28;20212;-65
2021/01/15 10:11:26;;;;;;;33.10;16.87;;;;;;;0.45;84.77;101877.53;5062357;28;20194;-64
2021/01/15 10:13:54;;;;;;;27.53;15.40;;;;;;;0.45;84.82;101875.78;5063097;28;20766;-63
2021/01/15 10:16:20;;;;;;;27.30;15.77;;;;;;;0.46;84.80;101879.28;5059872;28;20201;-64
2021/01/15 10:18:46;;;;;;;27.73;14.80;;;;;;;0.45;84.73;101878.41;5058229;28;20207;-62
2021/01/15 10:21:12;;;;;;;26.37;14.60;;;;;;;0.48;84.83;101882.78;5058320;28;20225;-64
2021/01/15 10:23:38;;;;;;;25.63;15.27;;;;;;;0.49;84.81;101880.16;5061542;28;20705;-64
2021/01/15 10:26:05;;;;;;;28.43;15.00;;;;;;;0.50;84.86;101887.16;5059053;28;20205;-62
2021/01/15 10:28:32;;;;;;;27.47;15.03;;;;;;;0.51;84.49;101880.16;5057473;28;20209;-63
2021/01/15 10:30:58;;;;;;;24.43;13.73;;;;;;;0.53;84.76;101881.03;5058563;28;20197;-62
2021/01/15 10:33:24;;;;;;;24.70;13.40;;;;;;;0.55;84.91;101884.50;5056332;28;20705;-64
2021/01/15 10:35:51;;;;;;;26.87;14.37;;;;;;;0.55;84.78;101880.13;5060414;28;20225;-62
2021/01/15 10:38:17;;;;;;;27.93;14.50;;;;;;;0.55;84.67;101874.88;5057088;28;20197;-60
2021/01/15 10:40:44;;;;;;;25.10;13.73;;;;;;;0.56;84.80;101879.25;5058603;28;20275;-63
2021/01/15 10:43:10;;;;;;;20.80;12.73;;;;;;;0.56;84.80;101870.50;5058451;28;20221;-61
2021/01/15 10:45:37;;;;;;;26.50;14.30;;;;;;;0.57;84.75;101873.13;5065027;28;20220;-62
2021/01/15 10:48:03;;;;;;;24.30;12.90;;;;;;;0.58;84.78;101868.75;5059252;28;20673;-63
2021/01/15 10:50:29;;;;;;;22.93;14.13;;;;;;;0.59;84.75;101871.38;5058540;28;20201;-62
2021/01/15 10:52:56;;;;;;;25.00;13.17;;;;;;;0.60;84.54;101872.25;5060458;28;20221;-62
2021/01/15 10:55:23;;;;;;;24.90;13.07;;;;;;;0.61;84.64;101874.88;5062807;28;20936;-62
2021/01/15 10:57:49;;;;;;;23.27;14.13;;;;;;;0.60;84.42;101873.13;5059988;28;20228;-62
2021/01/15 11:00:16;;;;;;;21.57;12.03;;;;;;;0.62;84.56;101875.75;5060038;28;20237;-60
2021/01/15 11:02:42;;;;;;;23.70;14.07;;;;;;;0.62;84.32;101879.25;5056983;28;20682;-62
2021/01/15 11:05:09;;;;;;;25.33;13.33;;;;;;;0.62;84.50;101871.38;5057083;28;20208;-62
2021/01/15 11:07:35;;;;;;;21.73;12.93;;;;;;;0.65;84.65;101879.25;5062412;28;20205;-62
2021/01/15 11:10:02;;;;;;;23.57;12.80;;;;;;;0.66;84.57;101883.59;5059650;28;20657;-62
2021/01/15 11:12:28;;;;;;;21.67;13.63;;;;;;;0.68;84.54;101881.00;5058127;28;20205;-63
2021/01/15 11:14:54;;;;;;;24.67;13.47;;;;;;;0.69;84.46;101883.59;5059662;28;20719;-62
2021/01/15 11:17:20;;;;;;;22.80;12.93;;;;;;;0.72;84.37;101887.94;5060950;28;20263;-61
2021/01/15 11:19:46;;;;;;;19.27;12.57;;;;;;;0.74;84.42;101888.81;5060659;28;20224;-63
2021/01/15 11:22:12;;;;;;;21.03;11.97;;;;;;;0.75;84.32;101887.94;5056688;28;20304;-62
2021/01/15 11:24:38;;;;;;;19.37;12.77;;;;;;;0.74;83.96;101883.56;5058894;28;20239;-63
2021/01/15 11:27:05;;;;;;;19.10;12.53;;;;;;;0.72;83.72;101887.09;5054051;28;20220;-63
2021/01/15 11:29:31;;;;;;;17.43;10.93;;;;;;;0.72;83.95;101881.84;5058951;28;20665;-62